Aviation Digital Data Service (ADDS)

Output produced by METARs form (0904 UTC 17 November 2018)
found at http://www.aviationweather.gov/metar/data/
 
EFSI 170850Z AUTO 28009KT 240V310 CAVOK 06/03 Q1030
EFSI 170820Z AUTO 28008KT 240V310 CAVOK 06/03 Q1030
EFSI 170750Z AUTO 27007KT 240V320 CAVOK 05/03 Q1030
EFSI 170720Z AUTO 27008KT 230V330 CAVOK 05/03 Q1030
EFSI 170650Z AUTO 27008KT 220V310 CAVOK 05/03 Q1029
EFSI 170620Z AUTO 28006KT 240V340 CAVOK 05/03 Q1030
EFSI 170550Z AUTO 26007KT 220V300 CAVOK 05/03 Q1029
EFSI 170520Z AUTO 26006KT 220V310 CAVOK 05/04 Q1030
EFSI 170450Z AUTO 26006KT 210V310 CAVOK 05/03 Q1030
EFSI 170420Z AUTO 27007KT 220V300 CAVOK 06/03 Q1030
EFSI 170350Z AUTO 25005KT 210V290 CAVOK 05/04 Q1030
EFSI 170320Z AUTO 24005KT 190V300 CAVOK 05/04 Q1030
EFSI 170250Z AUTO 23004KT 150V330 CAVOK 05/04 Q1030
EFSI 170220Z AUTO 22002KT CAVOK 05/04 Q1030
EFSI 170150Z AUTO 25003KT CAVOK 05/04 Q1030
EFSI 170120Z AUTO VRB03KT CAVOK 06/04 Q1030
EFSI 170050Z AUTO 24003KT CAVOK 06/05 Q1030
EFSI 170020Z AUTO VRB04KT CAVOK 06/05 Q1030
EFSI 162350Z AUTO VRB05KT CAVOK 06/05 Q1030
EFSI 162320Z AUTO 23006KT 180V290 CAVOK 06/05 Q1030
EFSI 162250Z AUTO 23006KT 180V280 CAVOK 06/05 Q1030
EFSI 162220Z AUTO 22004KT 150V270 9999 FEW007 BKN190 06/05 Q1030
EFSI 162150Z AUTO 22004KT 160V280 CAVOK 06/05 Q1029
EFSI 162120Z AUTO 22004KT 140V280 9999 FEW008 SCT125 BKN220 06/05 Q1030
EFSI 162050Z AUTO 23005KT 160V270 CAVOK 06/05 Q1029
EFSI 162020Z AUTO VRB04KT 9999 FEW010 BKN130 06/05 Q1029
EFSI 161950Z AUTO 22005KT 150V320 9999 FEW010 SCT013 BKN130 07/05 Q1029
EFSI 161920Z AUTO 22005KT 150V320 9999 SCT011 BKN014 07/05 Q1029
EFSI 161850Z AUTO 23005KT 150V290 9999 BKN012 BKN015 07/05 Q1029
EFSI 161820Z AUTO 22005KT 150V300 9999 BKN012 BKN015 07/05 Q1029
EFSI 161750Z AUTO 22005KT 140V300 9999 BKN012 OVC015 07/05 Q1029
EFSI 161720Z AUTO VRB04KT 9999 BKN012 OVC015 07/05 Q1028
EFSI 161650Z AUTO 23006KT 150V330 9999 BKN012 OVC015 07/05 Q1029
EFSI 161620Z AUTO 23006KT 150V300 9999 OVC013 07/05 Q1028
EFSI 161550Z AUTO 22008KT 120V300 9999 BKN013 OVC016 07/05 Q1028
EFSI 161520Z AUTO VRB07G18KT 9999 BKN013 BKN016 07/05 Q1028
EFSI 161450Z AUTO VRB07KT 9999 BKN014 OVC018 08/05 Q1028
EFSI 161420Z AUTO 22009KT 140V270 9999 BKN014 OVC017 08/05 Q1027
EFSI 161350Z AUTO VRB07KT 9999 BKN015 08/05 Q1027
EFSI 161320Z AUTO 23010G21KT 150V300 9999 BKN015 OVC019 08/05 Q1027
EFSI 161250Z AUTO VRB07KT 9999 BKN014 BKN017 08/05 Q1027
EFSI 161220Z AUTO 23009KT 160V280 9999 BKN014 OVC018 08/05 Q1027
EFSI 161150Z AUTO VRB10KT 9999 BKN014 OVC018 08/05 Q1026
EFSI 161120Z AUTO 22009KT 150V280 9999 SCT013 BKN016 08/06 Q1027
EFSI 161050Z AUTO 21009KT 150V280 9999 SCT012 BKN016 08/06 Q1027
EFSI 161020Z AUTO 21009KT 140V260 9999 SCT011 BKN015 08/06 Q1027
EFSI 160950Z AUTO 20008KT 110V280 9999 FEW009 BKN011 BKN016 08/07 Q1027
EFSI 160920Z AUTO 21007KT 140V280 9999 SCT009 BKN011 OVC016 09/07 Q1027
EFSI 160850Z AUTO 21008KT 160V280 9999 FEW008 BKN011 OVC015 09/07 Q1027
EFSI 160820Z AUTO 20009KT 160V250 9999 SCT006 BKN008 BKN010 09/08 Q1026
EFSI 160750Z AUTO 20009KT 150V240 9999 SCT005 BKN007 OVC009 09/08 Q1026
EFSI 160720Z AUTO 19009KT 130V230 9999 BKN005 OVC007 09/08 Q1026
EFSI 160650Z AUTO 20009KT 150V240 9999 BKN006 OVC008 09/08 Q1026
EFSI 160620Z AUTO 20010KT 140V260 7000 SCT006 BKN009 OVC011 09/09 Q1026
EFSI 160550Z AUTO 21008KT 140V280 6000 BKN006 OVC008 09/09 Q1026
EFSI 160520Z AUTO 20009KT 160V280 9999 SCT006 OVC008 09/09 Q1026
EFSI 160450Z AUTO 20010KT 150V260 9999 SCT007 OVC009 09/08 Q1026
EFSI 160420Z AUTO 20008KT 150V240 9999 FEW006 BKN008 OVC011 09/08 Q1026
EFSI 160350Z AUTO 20009KT 140V270 9999 SCT006 OVC008 09/08 Q1026
EFSI 160320Z AUTO 20007KT 140V260 9000 BKN006 BKN008 09/08 Q1026
EFSI 160250Z AUTO 19006KT 140V260 9000 SCT005 OVC007 09/08 Q1026
EFSI 160220Z AUTO 20007KT 140V260 8000 SCT005 OVC007 09/08 Q1026
EFSI 160150Z AUTO 18006KT 140V220 9999 SCT005 OVC007 09/08 Q1026
EFSI 160120Z AUTO 18005KT 140V230 9999 FEW005 OVC007 09/08 Q1026
EFSI 160050Z AUTO 18007KT 140V220 9999 SCT006 OVC008 09/08 Q1026
EFSI 160020Z AUTO 20005KT 150V250 9999 BKN006 OVC008 09/08 Q1026
EFSI 152350Z AUTO 18006KT 140V230 9999 BKN006 OVC008 09/08 Q1026
EFSI 152320Z AUTO 19005KT 150V260 9999 SCT006 OVC008 08/08 Q1026
EFSI 152250Z AUTO 18006KT 140V210 9999 FEW006 OVC008 08/08 Q1026
EFSI 152220Z AUTO 19004KT 140V230 9999 SCT005 OVC007 08/07 Q1025
EFSI 152150Z AUTO 19006KT 150V230 9999 BKN005 OVC007 08/08 Q1025
EFSI 152120Z AUTO 19005KT 150V230 9999 BKN005 OVC007 08/07 Q1025